createdAt,value
2022-09-20T00:02:31.189Z,15.90
2022-09-20T00:05:17.622Z,15.90
2022-09-20T00:08:05.275Z,15.90
2022-09-20T00:10:51.593Z,15.90
2022-09-20T00:13:39.009Z,15.90
2022-09-20T00:16:27.927Z,15.90
2022-09-20T00:19:20.008Z,15.80
2022-09-20T00:22:05.479Z,15.80
2022-09-20T00:24:51.559Z,15.80
2022-09-20T00:27:37.201Z,15.80
2022-09-20T00:30:23.509Z,15.70
2022-09-20T00:33:09.872Z,15.60
2022-09-20T00:35:55.827Z,15.70
2022-09-20T00:38:41.557Z,15.70
2022-09-20T00:41:29.193Z,15.60
2022-09-20T00:44:56.827Z,15.60
2022-09-20T00:47:45.117Z,15.50
2022-09-20T00:50:53.286Z,15.50
2022-09-20T00:53:44.187Z,15.50
2022-09-20T00:56:34.633Z,15.50
2022-09-20T00:59:27.167Z,15.50
2022-09-20T01:02:26.822Z,15.50
2022-09-20T01:05:13.955Z,15.50
2022-09-20T01:07:59.737Z,15.30
2022-09-20T01:10:45.443Z,15.40
2022-09-20T01:13:31.291Z,15.40
2022-09-20T01:16:18.764Z,15.40
2022-09-20T01:19:18.796Z,15.30
2022-09-20T01:22:15.936Z,15.30
2022-09-20T01:25:16.925Z,15.30
2022-09-20T01:28:02.639Z,15.20
2022-09-20T01:31:25.442Z,15.20
2022-09-20T01:34:21.365Z,15.30
2022-09-20T01:37:14.652Z,15.20
2022-09-20T01:40:13.200Z,15.20
2022-09-20T01:43:25.983Z,15.10
2022-09-20T01:46:28.522Z,15.10
2022-09-20T01:49:28.765Z,15.10
2022-09-20T01:52:45.848Z,15.00
2022-09-20T01:55:43.980Z,14.80
2022-09-20T01:59:22.535Z,14.80
2022-09-20T02:02:39.318Z,14.90
2022-09-20T02:05:46.367Z,14.70
2022-09-20T02:08:49.602Z,14.60
2022-09-20T02:11:46.262Z,14.60
2022-09-20T02:14:53.079Z,14.60
2022-09-20T02:18:17.308Z,14.50
2022-09-20T02:21:21.994Z,14.50
2022-09-20T02:24:26.759Z,14.50
2022-09-20T02:27:31.133Z,14.50
2022-09-20T02:30:44.802Z,14.50
2022-09-20T02:33:57.492Z,14.40
2022-09-20T02:37:03.972Z,14.50
2022-09-20T02:40:40.295Z,14.40
2022-09-20T02:43:54.069Z,14.40
2022-09-20T02:47:12.731Z,14.40
2022-09-20T02:50:13.795Z,14.30
2022-09-20T02:53:21.660Z,14.20
2022-09-20T02:56:25.187Z,14.20
2022-09-20T02:59:38.659Z,14.10
2022-09-20T03:02:44.076Z,14.10
2022-09-20T03:05:44.879Z,14.10
2022-09-20T03:08:43.028Z,14.10
2022-09-20T03:11:38.445Z,14.10
2022-09-20T03:14:36.693Z,14.00
2022-09-20T03:17:42.514Z,14.00
2022-09-20T03:20:35.969Z,14.00
2022-09-20T03:23:47.673Z,14.00
2022-09-20T03:26:58.780Z,14.00
2022-09-20T03:29:59.696Z,13.90
2022-09-20T03:33:07.026Z,14.00
2022-09-20T03:36:28.203Z,13.90
2022-09-20T03:39:45.490Z,14.00
2022-09-20T03:42:31.221Z,13.90
2022-09-20T03:45:42.882Z,14.00
2022-09-20T03:48:41.851Z,14.00
2022-09-20T03:51:45.612Z,14.00
2022-09-20T03:54:53.703Z,13.90
2022-09-20T03:57:46.067Z,13.90
2022-09-20T04:00:53.497Z,13.90
2022-09-20T04:03:56.123Z,13.90
2022-09-20T04:07:00.659Z,13.80
2022-09-20T04:10:05.115Z,13.80
2022-09-20T04:13:16.517Z,13.80
2022-09-20T04:16:32.465Z,13.80
2022-09-20T04:19:32.778Z,13.80
2022-09-20T04:22:22.571Z,13.80
2022-09-20T04:25:29.668Z,13.70
2022-09-20T04:28:22.744Z,13.80
2022-09-20T04:31:37.462Z,13.70
2022-09-20T04:34:50.948Z,13.70
2022-09-20T04:37:39.637Z,13.80
2022-09-20T04:40:44.502Z,13.80
2022-09-20T04:43:56.719Z,13.70
2022-09-20T04:47:00.800Z,13.70
2022-09-20T04:50:19.219Z,13.70
2022-09-20T04:53:15.269Z,13.70
2022-09-20T04:56:08.296Z,13.70
2022-09-20T04:59:10.381Z,13.60
2022-09-20T05:02:22.030Z,13.60
2022-09-20T05:05:26.926Z,13.60
2022-09-20T05:08:23.223Z,13.50
2022-09-20T05:11:30.492Z,13.50
2022-09-20T05:14:26.973Z,13.50
2022-09-20T05:17:38.239Z,13.50
2022-09-20T05:20:59.524Z,13.50
2022-09-20T05:24:26.357Z,13.50
2022-09-20T05:27:42.383Z,13.50
2022-09-20T05:30:40.808Z,13.50
2022-09-20T05:33:38.482Z,13.60
2022-09-20T05:36:40.785Z,13.80
2022-09-20T05:39:37.344Z,14.10
2022-09-20T05:42:33.232Z,14.40
2022-09-20T05:45:47.136Z,15.00
2022-09-20T05:49:03.363Z,15.30
2022-09-20T05:52:07.103Z,15.50
2022-09-20T05:55:04.974Z,16.10
2022-09-20T05:58:25.016Z,16.90
2022-09-20T06:01:41.333Z,18.00
2022-09-20T06:04:39.105Z,19.20
2022-09-20T06:08:03.817Z,19.80
2022-09-20T06:11:14.210Z,20.70
2022-09-20T06:14:03.639Z,21.20
2022-09-20T06:16:55.349Z,21.60
2022-09-20T06:19:50.091Z,22.00
2022-09-20T06:22:43.869Z,22.10
2022-09-20T06:25:42.850Z,22.00
2022-09-20T06:28:45.824Z,21.90
2022-09-20T06:31:33.829Z,21.30
2022-09-20T06:34:19.579Z,20.80
2022-09-20T06:37:28.368Z,20.60
2022-09-20T06:40:50.971Z,20.10
2022-09-20T06:43:38.050Z,19.60
2022-09-20T06:46:23.626Z,19.50
2022-09-20T06:49:09.706Z,19.70
2022-09-20T06:51:55.854Z,19.80
2022-09-20T06:54:45.855Z,19.80
2022-09-20T06:57:36.450Z,19.90
2022-09-20T07:00:21.951Z,19.50
2022-09-20T07:03:07.692Z,19.80
2022-09-20T07:05:53.821Z,19.50
2022-09-20T07:08:41.592Z,19.40
2022-09-20T07:11:27.821Z,19.40
2022-09-20T07:14:13.527Z,19.70
2022-09-20T07:16:58.953Z,19.80
2022-09-20T07:19:44.700Z,19.80
2022-09-20T07:22:30.801Z,19.60
2022-09-20T07:25:18.191Z,19.50
2022-09-20T07:28:04.186Z,19.60
2022-09-20T07:30:50.047Z,19.80
2022-09-20T07:33:35.803Z,19.80
2022-09-20T07:36:21.520Z,19.50
2022-09-20T07:39:07.368Z,19.30
2022-09-20T07:41:53.149Z,19.40
2022-09-20T07:44:39.164Z,19.20
2022-09-20T07:47:25.457Z,19.40
2022-09-20T07:50:11.676Z,19.50
2022-09-20T07:52:58.001Z,19.80
2022-09-20T07:55:43.908Z,19.50
2022-09-20T07:58:31.005Z,19.40
2022-09-20T08:01:16.599Z,19.30
2022-09-20T08:04:04.583Z,19.60
2022-09-20T08:06:50.522Z,20.10
2022-09-20T08:09:36.124Z,19.80
2022-09-20T08:15:29.297Z,19.90
2022-09-20T08:18:17.547Z,20.10
2022-09-20T08:21:06.245Z,20.50
2022-09-20T08:23:51.925Z,20.60
2022-09-20T08:26:37.426Z,20.80
2022-09-20T08:29:23.282Z,20.90
2022-09-20T08:32:09.211Z,20.90
2022-09-20T08:34:55.142Z,21.10
2022-09-20T08:37:43.683Z,21.20
2022-09-20T08:40:30.796Z,21.10
2022-09-20T08:43:22.256Z,21.20
2022-09-20T08:46:14.812Z,21.10
2022-09-20T08:49:03.255Z,21.40
2022-09-20T08:51:50.693Z,21.50
2022-09-20T08:54:36.264Z,21.60
2022-09-20T08:57:22.016Z,21.00
2022-09-20T09:00:16.066Z,20.80
2022-09-20T09:03:10.703Z,20.30
2022-09-20T09:05:58.333Z,19.90
2022-09-20T09:08:47.385Z,20.10
2022-09-20T09:11:34.446Z,20.50
2022-09-20T09:14:47.973Z,20.00
2022-09-20T09:17:33.496Z,20.10
2022-09-20T09:20:23.267Z,20.00
2022-09-20T09:23:19.569Z,19.80
2022-09-20T09:26:05.687Z,19.70
2022-09-20T09:29:17.953Z,19.90
2022-09-20T09:32:21.939Z,19.70
2022-09-20T09:35:23.492Z,19.90
2022-09-20T09:38:18.610Z,19.80
2022-09-20T09:41:08.571Z,19.90
2022-09-20T09:44:01.525Z,20.20
2022-09-20T09:46:50.128Z,20.20
2022-09-20T09:49:36.087Z,20.30
2022-09-20T09:52:27.975Z,20.50
2022-09-20T09:55:14.421Z,20.50
2022-09-20T09:58:26.319Z,20.50
2022-09-20T10:01:34.189Z,20.70
2022-09-20T10:04:44.935Z,21.10
2022-09-20T10:07:46.696Z,21.10
2022-09-20T10:10:56.251Z,21.10
2022-09-20T10:14:26.894Z,21.00
2022-09-20T10:18:00.991Z,21.10
2022-09-20T10:21:06.662Z,21.20
2022-09-20T10:24:03.349Z,21.40
2022-09-20T10:27:28.689Z,21.60
2022-09-20T10:30:23.671Z,21.40
2022-09-20T10:33:32.585Z,21.10
2022-09-20T10:36:29.256Z,21.30
2022-09-20T10:39:27.076Z,21.40
2022-09-20T10:43:12.804Z,21.10
2022-09-20T10:46:30.391Z,20.80
2022-09-20T10:49:33.725Z,21.00
2022-09-20T10:53:01.450Z,21.40
2022-09-20T10:56:05.285Z,21.30
2022-09-20T10:59:06.783Z,21.40
2022-09-20T11:02:13.194Z,21.30
2022-09-20T11:05:26.145Z,21.30
2022-09-20T11:08:22.889Z,21.40
2022-09-20T11:11:23.002Z,21.30
2022-09-20T11:14:19.349Z,21.50
2022-09-20T11:17:18.801Z,21.60
2022-09-20T11:20:17.003Z,21.70
2022-09-20T11:23:12.385Z,21.60
2022-09-20T11:26:07.363Z,21.70
2022-09-20T11:29:01.556Z,21.50
2022-09-20T11:31:50.552Z,21.60
2022-09-20T11:34:49.100Z,21.40
2022-09-20T11:37:57.352Z,21.70
2022-09-20T11:41:08.494Z,21.80
2022-09-20T11:43:57.556Z,21.70
2022-09-20T11:47:08.343Z,21.90
2022-09-20T11:50:21.712Z,22.00
2022-09-20T11:53:28.326Z,22.20
2022-09-20T11:56:35.299Z,22.30
2022-09-20T11:59:42.204Z,22.40
2022-09-20T12:02:53.182Z,22.20
2022-09-20T12:05:41.637Z,22.20
2022-09-20T12:08:41.719Z,22.00
2022-09-20T12:11:34.141Z,22.20
2022-09-20T12:14:24.335Z,22.20
2022-09-20T12:17:44.418Z,22.20
2022-09-20T12:20:32.978Z,22.00
2022-09-20T12:23:40.585Z,22.00
2022-09-20T12:26:26.603Z,22.20
2022-09-20T12:29:24.432Z,22.30
2022-09-20T12:32:43.849Z,22.40
2022-09-20T12:35:44.734Z,22.30
2022-09-20T12:38:34.699Z,22.30
2022-09-20T12:41:28.318Z,22.30
2022-09-20T12:44:35.278Z,22.20
2022-09-20T12:47:27.860Z,22.30
2022-09-20T12:50:33.711Z,22.40
2022-09-20T12:53:20.761Z,22.30
2022-09-20T12:56:27.975Z,22.40
2022-09-20T12:59:27.889Z,22.50
2022-09-20T13:03:02.463Z,22.40
2022-09-20T13:06:05.727Z,22.50
2022-09-20T13:09:09.052Z,22.60
2022-09-20T13:11:56.924Z,22.70
2022-09-20T13:14:44.268Z,22.60
2022-09-20T13:17:31.417Z,22.80
2022-09-20T13:20:22.801Z,22.70
2022-09-20T13:23:22.228Z,22.70
2022-09-20T13:26:13.756Z,22.90
2022-09-20T13:29:25.078Z,22.80
2022-09-20T13:32:26.287Z,22.90
2022-09-20T13:35:32.350Z,22.90
2022-09-20T13:38:22.660Z,23.00
2022-09-20T13:41:13.028Z,23.10
2022-09-20T13:43:58.785Z,23.10
2022-09-20T13:46:45.783Z,23.00
2022-09-20T13:49:32.755Z,23.10
2022-09-20T13:52:27.177Z,23.10
2022-09-20T13:55:30.792Z,23.20
2022-09-20T13:58:27.824Z,23.20
2022-09-20T14:01:32.784Z,23.20
2022-09-20T14:04:27.826Z,23.30
2022-09-20T14:07:15.112Z,23.30
2022-09-20T14:10:01.019Z,23.20
2022-09-20T14:12:49.133Z,23.20
2022-09-20T14:15:38.638Z,23.10
2022-09-20T14:18:24.566Z,23.10
2022-09-20T14:21:11.845Z,23.10
2022-09-20T14:24:06.548Z,23.00
2022-09-20T14:27:03.721Z,23.10
2022-09-20T14:29:54.020Z,23.20
2022-09-20T14:33:00.773Z,23.20
2022-09-20T14:35:50.984Z,23.00
2022-09-20T14:38:37.008Z,22.90
2022-09-20T14:41:46.922Z,22.90
2022-09-20T14:44:42.992Z,23.00
2022-09-20T14:47:37.079Z,23.00
2022-09-20T14:50:31.487Z,23.00
2022-09-20T14:53:26.847Z,23.00
2022-09-20T14:56:17.838Z,23.00
2022-09-20T14:59:06.917Z,23.00
2022-09-20T15:02:04.343Z,23.00
2022-09-20T15:04:56.315Z,23.00
2022-09-20T15:07:42.079Z,23.00
2022-09-20T15:10:27.870Z,23.00
2022-09-20T15:13:13.795Z,22.90
2022-09-20T15:15:59.489Z,23.00
2022-09-20T15:18:45.318Z,23.00
2022-09-20T15:21:31.260Z,23.00
2022-09-20T15:24:18.788Z,23.00
2022-09-20T15:27:05.110Z,23.00
2022-09-20T15:29:52.017Z,23.00
2022-09-20T15:32:38.048Z,22.90
2022-09-20T15:35:23.453Z,22.90
2022-09-20T15:38:11.650Z,22.80
2022-09-20T15:41:00.959Z,22.80
2022-09-20T15:43:50.266Z,22.60
2022-09-20T15:46:36.036Z,22.60
2022-09-20T15:49:22.246Z,22.60
2022-09-20T15:52:07.786Z,22.60
2022-09-20T15:54:54.010Z,22.60
2022-09-20T15:57:41.361Z,22.60
2022-09-20T16:00:26.722Z,22.50
2022-09-20T16:03:13.006Z,22.50
2022-09-20T16:06:04.063Z,22.50
2022-09-20T16:08:51.261Z,22.60
2022-09-20T16:11:37.509Z,22.50
2022-09-20T16:14:23.169Z,22.50
2022-09-20T16:17:10.019Z,22.40
2022-09-20T16:19:55.790Z,22.40
2022-09-20T16:22:41.725Z,22.40
2022-09-20T16:25:27.856Z,22.30
2022-09-20T16:28:14.528Z,22.30
2022-09-20T16:31:00.735Z,22.20
2022-09-20T16:33:46.416Z,22.20
2022-09-20T16:36:33.033Z,22.20
2022-09-20T16:39:19.982Z,22.20
2022-09-20T16:42:07.557Z,22.10
2022-09-20T16:44:53.044Z,22.00
2022-09-20T16:47:41.161Z,22.00
2022-09-20T16:50:26.664Z,21.90
2022-09-20T16:53:12.189Z,21.90
2022-09-20T16:55:57.951Z,21.90
2022-09-20T16:58:44.465Z,21.90
2022-09-20T17:01:31.525Z,21.90
2022-09-20T17:04:19.022Z,21.80
2022-09-20T17:07:05.368Z,21.80
2022-09-20T17:09:50.868Z,21.70
2022-09-20T17:12:41.920Z,21.60
2022-09-20T17:15:27.394Z,21.60
2022-09-20T17:18:15.683Z,21.50
2022-09-20T17:21:06.637Z,21.50
2022-09-20T17:24:00.277Z,21.40
2022-09-20T17:26:46.589Z,21.40
2022-09-20T17:29:32.677Z,21.30
2022-09-20T17:32:19.300Z,21.20
2022-09-20T17:35:05.573Z,21.20
2022-09-20T17:37:51.730Z,21.20
2022-09-20T17:40:37.187Z,21.20
2022-09-20T17:43:23.204Z,21.10
2022-09-20T17:46:12.096Z,21.10
2022-09-20T17:49:02.438Z,21.00
2022-09-20T17:51:53.459Z,21.00
2022-09-20T17:54:40.157Z,21.00
2022-09-20T17:57:26.055Z,20.90
2022-09-20T18:00:12.106Z,20.80
2022-09-20T18:03:00.498Z,20.80
2022-09-20T18:05:50.576Z,20.70
2022-09-20T18:08:36.220Z,20.70
2022-09-20T18:11:26.643Z,20.70
2022-09-20T18:14:13.324Z,20.60
2022-09-20T18:17:01.451Z,20.60
2022-09-20T18:19:47.739Z,20.50
2022-09-20T18:22:33.664Z,20.30
2022-09-20T18:25:19.632Z,20.20
2022-09-20T18:28:05.461Z,20.20
2022-09-20T18:31:04.410Z,20.00
2022-09-20T18:33:55.228Z,19.90
2022-09-20T18:36:41.482Z,19.80
2022-09-20T18:39:29.308Z,19.70
2022-09-20T18:42:15.286Z,19.60
2022-09-20T18:45:00.845Z,19.50
2022-09-20T18:47:47.018Z,19.50
2022-09-20T18:50:34.660Z,19.40
2022-09-20T18:53:20.290Z,19.30
2022-09-20T18:56:14.237Z,19.20
2022-09-20T18:59:01.664Z,19.10
2022-09-20T19:01:50.507Z,19.10
2022-09-20T19:05:01.457Z,19.00
2022-09-20T19:08:17.588Z,18.90
2022-09-20T19:11:10.753Z,18.80
2022-09-20T19:14:14.848Z,18.70
2022-09-20T19:17:04.601Z,18.70
2022-09-20T19:19:56.189Z,18.60
2022-09-20T19:23:07.993Z,18.60
2022-09-20T19:26:20.828Z,18.50
2022-09-20T19:29:21.755Z,18.50
2022-09-20T19:32:17.227Z,18.50
2022-09-20T19:35:03.960Z,18.50
2022-09-20T19:38:15.564Z,18.40
2022-09-20T19:41:08.828Z,18.30
2022-09-20T19:44:25.094Z,18.20
2022-09-20T19:47:46.586Z,18.20
2022-09-20T19:50:46.269Z,18.10
2022-09-20T19:53:32.348Z,18.10
2022-09-20T19:56:21.633Z,18.10
2022-09-20T19:59:09.290Z,18.00
2022-09-20T20:01:56.572Z,18.00
2022-09-20T20:04:43.633Z,17.90
2022-09-20T20:07:39.804Z,17.90
2022-09-20T20:10:28.914Z,17.90
2022-09-20T20:14:02.361Z,17.80
2022-09-20T20:17:21.974Z,17.80
2022-09-20T20:20:33.875Z,17.70
2022-09-20T20:23:39.606Z,17.70
2022-09-20T20:26:26.075Z,17.60
2022-09-20T20:29:12.233Z,17.70
2022-09-20T20:31:57.948Z,17.50
2022-09-20T20:34:44.272Z,17.50
2022-09-20T20:37:32.062Z,17.50
2022-09-20T20:40:18.694Z,17.40
2022-09-20T20:43:06.171Z,17.40
2022-09-20T20:45:51.950Z,17.40
2022-09-20T20:48:37.765Z,17.40
2022-09-20T20:51:23.676Z,17.40
2022-09-20T20:54:10.383Z,17.40
2022-09-20T20:56:55.984Z,17.30
2022-09-20T20:59:41.838Z,17.20
2022-09-20T21:02:27.200Z,17.30
2022-09-20T21:05:15.173Z,17.30
2022-09-20T21:08:01.193Z,17.20
2022-09-20T21:10:46.733Z,17.20
2022-09-20T21:13:33.010Z,17.20
2022-09-20T21:16:24.341Z,17.10
2022-09-20T21:19:14.949Z,17.10
2022-09-20T21:22:00.528Z,17.10
2022-09-20T21:24:47.068Z,17.10
2022-09-20T21:27:36.099Z,17.10
2022-09-20T21:30:21.584Z,17.00
2022-09-20T21:33:07.089Z,17.00
2022-09-20T21:35:57.663Z,16.90
2022-09-20T21:38:44.652Z,16.90
2022-09-20T21:41:32.483Z,16.90
2022-09-20T21:44:20.513Z,16.80
2022-09-20T21:47:06.300Z,16.80
2022-09-20T21:49:51.946Z,16.70
2022-09-20T21:52:38.947Z,16.70
2022-09-20T21:55:24.709Z,16.70
2022-09-20T21:58:10.734Z,16.70
2022-09-20T22:01:06.140Z,16.60
2022-09-20T22:03:56.508Z,16.60
2022-09-20T22:06:43.828Z,16.60
2022-09-20T22:09:29.436Z,16.60
2022-09-20T22:12:15.159Z,16.50
2022-09-20T22:15:00.693Z,16.50
2022-09-20T22:17:46.112Z,16.40
2022-09-20T22:20:31.558Z,16.30
2022-09-20T22:23:17.496Z,16.30
2022-09-20T22:26:12.894Z,16.30
2022-09-20T22:28:58.815Z,16.30
2022-09-20T22:31:46.688Z,16.30
2022-09-20T22:34:33.079Z,16.20
2022-09-20T22:37:18.578Z,16.30
2022-09-20T22:40:04.740Z,16.20
2022-09-20T22:42:50.955Z,16.20
2022-09-20T22:45:36.584Z,16.10
2022-09-20T22:48:22.507Z,16.10
2022-09-20T22:51:13.865Z,16.10
2022-09-20T22:54:00.080Z,16.00
2022-09-20T22:56:45.648Z,16.00
2022-09-20T22:59:31.385Z,16.00
2022-09-20T23:02:17.336Z,16.00
2022-09-20T23:05:02.908Z,15.90
2022-09-20T23:07:49.092Z,15.90
2022-09-20T23:10:37.177Z,15.90
2022-09-20T23:13:23.129Z,16.50
2022-09-20T23:16:18.630Z,15.80
2022-09-20T23:19:06.286Z,15.80
2022-09-20T23:21:52.130Z,15.80
2022-09-20T23:24:37.542Z,15.80
2022-09-20T23:27:24.514Z,15.70
2022-09-20T23:30:10.764Z,15.70
2022-09-20T23:32:56.445Z,15.70
2022-09-20T23:35:45.547Z,15.70
2022-09-20T23:38:31.132Z,15.70
2022-09-20T23:41:20.365Z,15.70
2022-09-20T23:44:07.444Z,15.70
2022-09-20T23:46:53.369Z,15.60
2022-09-20T23:49:38.765Z,15.60
2022-09-20T23:52:24.219Z,15.60
2022-09-20T23:55:09.808Z,15.50
2022-09-20T23:57:59.424Z,15.50
